createdAt,value
2019-03-10T00:00:36.452Z,0.00
2019-03-10T00:01:36.355Z,0.00
2019-03-10T00:02:36.321Z,0.00
2019-03-10T00:03:36.249Z,0.00
2019-03-10T00:04:36.222Z,0.00
2019-03-10T00:05:36.177Z,0.00
2019-03-10T00:06:36.165Z,0.00
2019-03-10T00:07:36.108Z,0.00
2019-03-10T00:08:36.075Z,0.00
2019-03-10T00:09:36.042Z,0.00
2019-03-10T00:10:36.064Z,0.00
2019-03-10T00:11:35.999Z,0.00
2019-03-10T00:12:35.956Z,0.00
2019-03-10T00:13:35.905Z,0.00
2019-03-10T00:14:35.868Z,0.00
2019-03-10T00:15:35.839Z,0.00
2019-03-10T00:16:35.871Z,0.00
2019-03-10T00:17:35.761Z,0.00
2019-03-10T00:18:35.728Z,0.00
2019-03-10T00:19:36.879Z,0.00
2019-03-10T00:20:35.663Z,0.00
2019-03-10T00:21:35.658Z,0.00
2019-03-10T00:22:35.600Z,0.00
2019-03-10T00:23:35.558Z,0.00
2019-03-10T00:24:36.350Z,0.00
2019-03-10T00:25:35.491Z,0.00
2019-03-10T00:26:35.482Z,0.00
2019-03-10T00:27:35.417Z,0.00
2019-03-10T00:28:35.389Z,0.00
2019-03-10T00:29:35.355Z,0.00
2019-03-10T00:30:35.314Z,0.00
2019-03-10T00:31:35.303Z,0.00
2019-03-10T00:32:35.245Z,0.00
2019-03-10T00:33:35.217Z,0.00
2019-03-10T00:34:35.178Z,0.00
2019-03-10T00:35:35.141Z,0.00
2019-03-10T00:36:35.137Z,0.00
2019-03-10T00:37:35.077Z,0.00
2019-03-10T00:38:35.079Z,0.00
2019-03-10T00:39:35.017Z,0.00
2019-03-10T00:40:34.971Z,0.00
2019-03-10T00:41:34.939Z,0.00
2019-03-10T00:42:34.935Z,0.00
2019-03-10T00:43:34.868Z,0.00
2019-03-10T00:44:34.843Z,0.00
2019-03-10T00:45:34.802Z,0.00
2019-03-10T00:46:34.865Z,0.00
2019-03-10T00:47:34.784Z,0.00
2019-03-10T00:48:34.699Z,0.00
2019-03-10T00:49:34.657Z,0.00
2019-03-10T00:50:34.654Z,0.00
2019-03-10T00:51:35.345Z,0.00
2019-03-10T00:52:34.583Z,0.00
2019-03-10T00:53:34.527Z,0.00
2019-03-10T00:54:34.494Z,0.00
2019-03-10T00:55:34.486Z,0.00
2019-03-10T00:56:34.484Z,0.00
2019-03-10T00:57:34.423Z,0.00
2019-03-10T00:58:34.408Z,0.00
2019-03-10T00:59:34.316Z,0.00
2019-03-10T01:00:34.281Z,0.00
2019-03-10T01:01:34.247Z,0.00
2019-03-10T01:02:34.297Z,0.00
2019-03-10T01:03:34.181Z,0.00
2019-03-10T01:04:34.843Z,0.00
2019-03-10T01:05:34.113Z,0.00
2019-03-10T01:06:34.088Z,0.00
2019-03-10T01:07:34.038Z,0.00
2019-03-10T01:08:34.375Z,0.00
2019-03-10T01:09:34.841Z,0.00
2019-03-10T01:10:33.951Z,0.00
2019-03-10T01:11:33.906Z,0.00
2019-03-10T01:12:33.867Z,0.00
2019-03-10T01:13:33.851Z,0.00
2019-03-10T01:14:33.794Z,0.00
2019-03-10T01:15:33.765Z,0.00
2019-03-10T01:16:34.447Z,0.00
2019-03-10T01:17:34.351Z,0.00
2019-03-10T01:18:33.879Z,0.00
2019-03-10T01:19:33.632Z,0.00
2019-03-10T01:20:33.633Z,0.00
2019-03-10T01:21:33.555Z,0.00
2019-03-10T01:22:33.526Z,0.00
2019-03-10T01:23:33.503Z,0.00
2019-03-10T01:24:33.443Z,0.00
2019-03-10T01:25:33.408Z,0.00
2019-03-10T01:26:33.388Z,0.00
2019-03-10T01:27:33.340Z,0.00
2019-03-10T01:28:33.338Z,0.00
2019-03-10T01:29:33.271Z,0.00
2019-03-10T01:30:33.241Z,0.00
2019-03-10T01:31:33.205Z,0.00
2019-03-10T01:32:33.166Z,0.00
2019-03-10T01:33:33.159Z,0.00
2019-03-10T01:34:33.098Z,0.00
2019-03-10T01:35:33.068Z,0.00
2019-03-10T01:36:33.032Z,0.00
2019-03-10T01:37:32.990Z,0.00
2019-03-10T01:38:32.992Z,0.00
2019-03-10T01:39:32.926Z,0.00
2019-03-10T01:40:32.888Z,0.00
2019-03-10T01:41:33.854Z,0.00
2019-03-10T01:42:32.827Z,0.00
2019-03-10T01:43:32.900Z,0.00
2019-03-10T01:44:32.761Z,0.00
2019-03-10T01:45:32.724Z,0.00
2019-03-10T01:46:32.684Z,0.00
2019-03-10T01:47:32.647Z,0.00
2019-03-10T01:48:32.654Z,0.00
2019-03-10T01:49:32.610Z,0.00
2019-03-10T01:50:32.539Z,0.00
2019-03-10T01:51:32.504Z,0.00
2019-03-10T01:52:32.471Z,0.00
2019-03-10T01:53:32.489Z,0.00
2019-03-10T01:54:32.442Z,0.00
2019-03-10T01:55:32.385Z,0.00
2019-03-10T01:56:32.332Z,0.00
2019-03-10T01:57:32.299Z,0.00
2019-03-10T01:58:32.262Z,0.00
2019-03-10T01:59:32.380Z,0.00
2019-03-10T02:00:32.196Z,0.00
2019-03-10T02:01:32.843Z,0.00
2019-03-10T02:02:32.124Z,0.00
2019-03-10T02:03:32.846Z,0.00
2019-03-10T02:04:32.083Z,0.00
2019-03-10T02:05:32.031Z,0.00
2019-03-10T02:06:31.996Z,0.00
2019-03-10T02:07:31.950Z,0.00
2019-03-10T02:08:31.914Z,0.00
2019-03-10T02:09:31.943Z,0.00
2019-03-10T02:10:32.342Z,0.00
2019-03-10T02:11:31.815Z,0.00
2019-03-10T02:12:31.851Z,0.00
2019-03-10T02:13:31.742Z,0.00
2019-03-10T02:14:31.731Z,0.00
2019-03-10T02:15:32.362Z,0.00
2019-03-10T02:16:31.643Z,0.00
2019-03-10T02:17:31.602Z,0.00
2019-03-10T02:18:32.351Z,0.00
2019-03-10T02:19:31.563Z,0.00
2019-03-10T02:20:32.352Z,0.00
2019-03-10T02:21:31.466Z,0.00
2019-03-10T02:22:31.431Z,0.00
2019-03-10T02:23:31.392Z,0.00
2019-03-10T02:24:31.420Z,0.00
2019-03-10T02:25:31.329Z,0.00
2019-03-10T02:26:31.848Z,0.00
2019-03-10T02:27:31.262Z,0.00
2019-03-10T02:28:31.280Z,0.00
2019-03-10T02:29:31.221Z,0.00
2019-03-10T02:30:31.150Z,0.00
2019-03-10T02:31:31.123Z,0.00
2019-03-10T02:32:31.864Z,0.00
2019-03-10T02:33:31.045Z,0.00
2019-03-10T02:34:31.045Z,0.00
2019-03-10T02:35:30.986Z,0.00
2019-03-10T02:36:30.967Z,0.00
2019-03-10T02:37:31.855Z,0.00
2019-03-10T02:38:30.874Z,0.00
2019-03-10T02:39:30.839Z,0.00
2019-03-10T02:40:30.884Z,0.00
2019-03-10T02:41:30.772Z,0.00
2019-03-10T02:42:30.734Z,0.00
2019-03-10T02:43:30.706Z,0.00
2019-03-10T02:44:31.368Z,0.00
2019-03-10T02:45:30.721Z,0.00
2019-03-10T02:46:31.353Z,0.00
2019-03-10T02:47:31.348Z,0.00
2019-03-10T02:48:30.526Z,0.00
2019-03-10T02:49:30.496Z,0.00
2019-03-10T02:50:30.890Z,0.00
2019-03-10T02:51:30.428Z,0.00
2019-03-10T02:52:31.355Z,0.00
2019-03-10T02:53:30.351Z,0.00
2019-03-10T02:54:30.319Z,0.00
2019-03-10T02:55:30.320Z,0.00
2019-03-10T02:56:30.252Z,0.00
2019-03-10T02:57:30.213Z,0.00
2019-03-10T02:58:30.179Z,0.00
2019-03-10T02:59:30.140Z,0.00
2019-03-10T03:00:30.218Z,0.00
2019-03-10T03:01:30.080Z,0.00
2019-03-10T03:02:30.042Z,0.00
2019-03-10T03:03:30.856Z,0.00
2019-03-10T03:04:30.854Z,0.00
2019-03-10T03:05:30.036Z,0.00
2019-03-10T03:06:29.908Z,0.00
2019-03-10T03:07:29.878Z,0.00
2019-03-10T03:08:30.356Z,0.00
2019-03-10T03:09:29.805Z,0.00
2019-03-10T03:10:29.825Z,0.00
2019-03-10T03:11:29.730Z,0.00
2019-03-10T03:12:29.707Z,0.00
2019-03-10T03:13:29.663Z,0.00
2019-03-10T03:14:30.428Z,0.00
2019-03-10T03:15:29.638Z,0.00
2019-03-10T03:16:30.472Z,0.00
2019-03-10T03:17:29.537Z,0.00
2019-03-10T03:18:30.376Z,0.00
2019-03-10T03:19:29.448Z,0.00
2019-03-10T03:20:29.450Z,0.00
2019-03-10T03:21:42.446Z,0.00
2019-03-10T03:22:29.363Z,0.00
2019-03-10T03:23:29.322Z,0.00
2019-03-10T03:24:29.853Z,0.00
2019-03-10T03:25:29.282Z,0.00
2019-03-10T03:26:29.211Z,0.00
2019-03-10T03:27:29.854Z,0.00
2019-03-10T03:28:29.149Z,0.00
2019-03-10T03:29:29.111Z,0.00
2019-03-10T03:30:29.109Z,0.00
2019-03-10T03:31:29.038Z,0.00
2019-03-10T03:32:29.009Z,0.00
2019-03-10T03:33:28.974Z,0.00
2019-03-10T03:34:28.929Z,0.00
2019-03-10T03:35:28.932Z,0.00
2019-03-10T03:36:29.862Z,0.00
2019-03-10T03:37:28.830Z,0.00
2019-03-10T03:38:28.794Z,0.00
2019-03-10T03:39:28.759Z,0.00
2019-03-10T03:40:28.727Z,0.00
2019-03-10T03:41:28.724Z,0.00
2019-03-10T03:42:28.655Z,0.00
2019-03-10T03:43:28.627Z,0.00
2019-03-10T03:44:28.597Z,0.00
2019-03-10T03:45:28.568Z,0.00
2019-03-10T03:46:28.546Z,0.00
2019-03-10T03:47:28.481Z,0.00
2019-03-10T03:48:28.455Z,0.00
2019-03-10T03:49:28.415Z,0.00
2019-03-10T03:50:28.383Z,0.00
2019-03-10T03:51:28.374Z,0.00
2019-03-10T03:52:28.314Z,0.00
2019-03-10T03:53:28.318Z,0.00
2019-03-10T03:54:28.245Z,0.00
2019-03-10T03:55:28.215Z,0.00
2019-03-10T03:56:28.203Z,0.00
2019-03-10T03:57:28.138Z,0.00
2019-03-10T03:58:28.116Z,0.00
2019-03-10T03:59:28.076Z,0.00
2019-03-10T04:00:28.043Z,0.00
2019-03-10T04:01:28.032Z,0.00
2019-03-10T04:02:27.967Z,0.00
2019-03-10T04:03:27.936Z,0.00
2019-03-10T04:04:27.902Z,0.00
2019-03-10T04:05:27.865Z,0.00
2019-03-10T04:06:27.905Z,0.00
2019-03-10T04:07:27.878Z,0.00
2019-03-10T04:08:27.777Z,0.00
2019-03-10T04:09:27.727Z,0.00
2019-03-10T04:10:27.718Z,0.00
2019-03-10T04:11:27.688Z,0.00
2019-03-10T04:12:27.628Z,0.00
2019-03-10T04:13:27.612Z,0.00
2019-03-10T04:14:27.558Z,0.00
2019-03-10T04:15:27.525Z,0.00
2019-03-10T04:16:27.894Z,0.00
2019-03-10T04:17:27.520Z,0.00
2019-03-10T04:18:27.428Z,0.00
2019-03-10T04:19:27.404Z,0.00
2019-03-10T04:20:27.359Z,0.00
2019-03-10T04:21:27.362Z,0.00
2019-03-10T04:22:27.858Z,0.00
2019-03-10T04:23:27.258Z,0.00
2019-03-10T04:24:27.224Z,0.00
2019-03-10T04:25:27.185Z,0.00
2019-03-10T04:26:27.153Z,0.00
2019-03-10T04:27:27.150Z,0.00
2019-03-10T04:28:27.091Z,0.00
2019-03-10T04:29:27.052Z,0.00
2019-03-10T04:30:27.021Z,0.00
2019-03-10T04:31:26.980Z,0.00
2019-03-10T04:32:26.980Z,0.00
2019-03-10T04:33:26.930Z,0.00
2019-03-10T04:34:26.881Z,0.00
2019-03-10T04:35:26.853Z,0.00
2019-03-10T04:36:26.834Z,0.00
2019-03-10T04:37:26.801Z,0.00
2019-03-10T04:38:26.791Z,0.00
2019-03-10T04:39:27.369Z,0.00
2019-03-10T04:40:27.366Z,0.00
2019-03-10T04:41:26.640Z,0.00
2019-03-10T04:42:26.631Z,0.00
2019-03-10T04:43:26.575Z,0.00
2019-03-10T04:44:26.542Z,0.00
2019-03-10T04:45:27.363Z,0.00
2019-03-10T04:46:26.579Z,0.00
2019-03-10T04:47:26.464Z,0.00
2019-03-10T04:48:26.402Z,0.00
2019-03-10T04:49:26.367Z,0.00
2019-03-10T04:50:26.338Z,0.00
2019-03-10T04:51:26.296Z,0.00
2019-03-10T04:52:26.395Z,0.00
2019-03-10T04:53:26.235Z,0.00
2019-03-10T04:54:26.198Z,0.00
2019-03-10T04:55:26.162Z,0.00
2019-03-10T04:56:26.132Z,0.00
2019-03-10T04:57:26.125Z,0.00
2019-03-10T04:58:26.067Z,0.00
2019-03-10T04:59:26.036Z,0.00
2019-03-10T05:00:25.994Z,0.00
2019-03-10T05:01:25.964Z,0.00
2019-03-10T05:02:25.964Z,0.00
2019-03-10T05:03:26.868Z,0.00
2019-03-10T05:04:25.863Z,0.00
2019-03-10T05:05:25.826Z,0.00
2019-03-10T05:06:26.366Z,0.00
2019-03-10T05:07:25.790Z,0.00
2019-03-10T05:08:25.726Z,0.00
2019-03-10T05:09:26.362Z,0.00
2019-03-10T05:10:25.660Z,0.00
2019-03-10T05:11:25.625Z,0.00
2019-03-10T05:12:25.909Z,0.00
2019-03-10T05:13:25.556Z,0.00
2019-03-10T05:14:25.520Z,0.00
2019-03-10T05:15:25.488Z,0.00
2019-03-10T05:16:26.510Z,0.00
2019-03-10T05:17:25.471Z,0.00
2019-03-10T05:18:25.383Z,0.00
2019-03-10T05:19:25.862Z,0.00
2019-03-10T05:20:25.867Z,0.00
2019-03-10T05:21:25.289Z,0.00
2019-03-10T05:22:25.404Z,0.00
2019-03-10T05:23:25.873Z,5.63
2019-03-10T05:24:25.861Z,5.63
2019-03-10T05:25:25.882Z,5.63
2019-03-10T05:26:25.115Z,5.63
2019-03-10T05:27:25.120Z,5.63
2019-03-10T05:28:25.054Z,11.25
2019-03-10T05:29:25.011Z,11.25
2019-03-10T05:30:24.978Z,11.25
2019-03-10T05:31:24.950Z,11.25
2019-03-10T05:32:26.653Z,11.25
2019-03-10T05:33:24.956Z,11.25
2019-03-10T05:34:24.885Z,11.25
2019-03-10T05:35:24.859Z,16.88
2019-03-10T05:36:24.775Z,16.88
2019-03-10T05:37:24.741Z,16.88
2019-03-10T05:38:26.400Z,16.88
2019-03-10T05:39:24.674Z,16.88
2019-03-10T05:40:25.368Z,22.50
2019-03-10T05:41:24.617Z,22.50
2019-03-10T05:42:24.572Z,22.50
2019-03-10T05:43:24.568Z,22.50
2019-03-10T05:44:25.436Z,22.50
2019-03-10T05:45:24.467Z,28.13
2019-03-10T05:46:24.435Z,28.13
2019-03-10T05:47:24.399Z,28.13
2019-03-10T05:48:24.390Z,33.75
2019-03-10T05:49:24.333Z,33.75
2019-03-10T05:50:24.306Z,33.75
2019-03-10T05:51:24.283Z,39.38
2019-03-10T05:52:24.231Z,45.00
2019-03-10T05:53:24.235Z,45.00
2019-03-10T05:54:24.164Z,50.63
2019-03-10T05:55:24.131Z,50.63
2019-03-10T05:56:24.151Z,50.63
2019-03-10T05:58:38.546Z,56.25
2019-03-10T05:59:37.033Z,56.25
2019-03-10T06:00:42.505Z,56.25
2019-03-10T06:01:37.531Z,56.25
2019-03-10T06:02:36.745Z,61.88
2019-03-10T06:03:37.060Z,61.88
2019-03-10T06:04:36.677Z,61.88
2019-03-10T06:05:37.522Z,67.50
2019-03-10T06:06:37.527Z,67.50
2019-03-10T06:07:36.576Z,67.50
2019-03-10T06:08:36.563Z,73.13
2019-03-10T06:09:36.518Z,73.13
2019-03-10T06:10:36.485Z,78.75
2019-03-10T06:11:36.436Z,84.38
2019-03-10T06:12:36.406Z,90.00
2019-03-10T06:13:36.443Z,95.63
2019-03-10T06:14:37.430Z,95.63
2019-03-10T06:15:37.983Z,101.25
2019-03-10T06:16:36.269Z,106.88
2019-03-10T06:17:36.234Z,112.50
2019-03-10T06:18:37.072Z,118.13
2019-03-10T06:19:37.589Z,123.75
2019-03-10T06:20:36.211Z,129.38
2019-03-10T06:21:39.124Z,135.00
2019-03-10T06:22:37.032Z,140.63
2019-03-10T06:23:36.061Z,146.25
2019-03-10T06:24:36.612Z,151.88
2019-03-10T06:25:35.988Z,168.75
2019-03-10T06:26:37.994Z,180.00
2019-03-10T06:27:37.520Z,185.63
2019-03-10T06:28:36.068Z,191.25
2019-03-10T06:29:35.836Z,185.63
2019-03-10T06:30:36.670Z,185.63
2019-03-10T06:31:35.765Z,185.63
2019-03-10T06:32:35.738Z,196.88
2019-03-10T06:33:35.717Z,219.38
2019-03-10T06:34:36.539Z,230.63
2019-03-10T06:35:35.626Z,230.63
2019-03-10T06:36:35.592Z,225.00
2019-03-10T06:37:35.566Z,208.13
2019-03-10T06:38:35.548Z,202.50
2019-03-10T06:39:35.487Z,196.88
2019-03-10T06:40:36.032Z,196.88
2019-03-10T06:41:36.040Z,191.25
2019-03-10T06:42:35.391Z,180.00
2019-03-10T06:43:35.379Z,180.00
2019-03-10T06:44:35.325Z,180.00
2019-03-10T06:45:35.346Z,185.63
2019-03-10T06:46:35.259Z,185.63
2019-03-10T06:47:36.072Z,185.63
2019-03-10T06:48:35.624Z,180.00
2019-03-10T06:49:36.028Z,168.75
2019-03-10T06:50:35.137Z,168.75
2019-03-10T06:51:35.095Z,163.13
2019-03-10T06:52:35.059Z,168.75
2019-03-10T06:53:35.052Z,174.38
2019-03-10T06:54:35.028Z,185.63
2019-03-10T06:55:34.962Z,202.50
2019-03-10T06:56:34.929Z,208.13
2019-03-10T06:57:34.904Z,213.75
2019-03-10T06:58:37.450Z,213.75
2019-03-10T06:59:34.831Z,208.13
2019-03-10T07:00:35.547Z,202.50
2019-03-10T07:01:35.532Z,208.13
2019-03-10T07:02:34.737Z,219.38
2019-03-10T07:03:34.717Z,225.00
2019-03-10T07:04:34.700Z,230.63
2019-03-10T07:05:34.636Z,236.25
2019-03-10T07:06:34.615Z,236.25
2019-03-10T07:07:34.571Z,247.50
2019-03-10T07:08:35.540Z,247.50
2019-03-10T07:09:34.533Z,253.13
2019-03-10T07:10:34.490Z,264.38
2019-03-10T07:11:34.447Z,275.63
2019-03-10T07:12:34.414Z,286.88
2019-03-10T07:13:34.387Z,303.75
2019-03-10T07:14:34.565Z,315.00
2019-03-10T07:15:34.313Z,326.25
2019-03-10T07:16:34.290Z,320.63
2019-03-10T07:17:34.244Z,309.38
2019-03-10T07:18:34.219Z,309.38
2019-03-10T07:19:34.566Z,309.38
2019-03-10T07:20:34.162Z,315.00
2019-03-10T07:21:35.039Z,320.63
2019-03-10T07:22:34.085Z,331.88
2019-03-10T07:23:35.097Z,337.50
2019-03-10T07:24:34.048Z,348.75
2019-03-10T07:25:33.993Z,360.00
2019-03-10T07:26:33.964Z,371.25
2019-03-10T07:27:33.943Z,376.88
2019-03-10T07:28:33.900Z,371.25
2019-03-10T07:29:33.906Z,365.63
2019-03-10T07:30:33.869Z,365.63
2019-03-10T07:31:33.827Z,388.13
2019-03-10T07:32:33.783Z,393.75
2019-03-10T07:33:33.744Z,399.38
2019-03-10T07:34:33.746Z,393.75
2019-03-10T07:35:33.686Z,388.13
2019-03-10T07:36:33.686Z,399.38
2019-03-10T07:37:33.696Z,399.38
2019-03-10T07:38:33.588Z,393.75
2019-03-10T07:39:33.587Z,393.75
2019-03-10T07:40:33.528Z,393.75
2019-03-10T07:41:33.493Z,388.13
2019-03-10T07:42:33.484Z,388.13
2019-03-10T07:44:33.442Z,393.75
2019-03-10T07:45:33.379Z,399.38
2019-03-10T07:46:33.356Z,405.00
2019-03-10T07:47:33.310Z,410.63
2019-03-10T07:48:33.283Z,421.88
2019-03-10T07:49:33.280Z,427.50
2019-03-10T07:50:33.210Z,433.13
2019-03-10T07:51:33.182Z,421.88
2019-03-10T07:52:33.157Z,410.63
2019-03-10T07:53:33.122Z,405.00
2019-03-10T07:54:33.094Z,399.38
2019-03-10T07:55:33.611Z,416.25
2019-03-10T07:56:33.560Z,421.88
2019-03-10T07:57:33.018Z,427.50
2019-03-10T07:58:35.953Z,438.75
2019-03-10T07:59:32.942Z,450.00
2019-03-10T08:00:33.553Z,461.25
2019-03-10T08:01:32.873Z,472.50
2019-03-10T08:02:33.542Z,483.75
2019-03-10T08:03:32.821Z,489.38
2019-03-10T08:04:32.789Z,495.00
2019-03-10T08:05:33.085Z,500.63
2019-03-10T08:06:32.731Z,495.00
2019-03-10T08:07:32.688Z,495.00
2019-03-10T08:08:32.712Z,506.25
2019-03-10T08:09:32.631Z,517.50
2019-03-10T08:10:32.621Z,528.75
2019-03-10T08:11:32.565Z,528.75
2019-03-10T08:12:32.534Z,517.50
2019-03-10T08:13:32.510Z,500.63
2019-03-10T08:14:33.043Z,472.50
2019-03-10T08:15:33.083Z,450.00
2019-03-10T08:16:32.411Z,433.13
2019-03-10T08:17:32.393Z,427.50
2019-03-10T08:18:32.360Z,427.50
2019-03-10T08:19:32.326Z,433.13
2019-03-10T08:20:32.317Z,438.75
2019-03-10T08:21:32.284Z,438.75
2019-03-10T08:22:32.289Z,438.75
2019-03-10T08:23:35.046Z,450.00
2019-03-10T08:24:32.174Z,461.25
2019-03-10T08:25:32.609Z,478.13
2019-03-10T08:26:33.054Z,500.63
2019-03-10T08:27:32.082Z,511.88
2019-03-10T08:28:32.066Z,517.50
2019-03-10T08:29:32.022Z,511.88
2019-03-10T08:30:31.993Z,506.25
2019-03-10T08:31:31.983Z,517.50
2019-03-10T08:32:31.933Z,534.38
2019-03-10T08:33:32.556Z,556.88
2019-03-10T08:34:32.545Z,568.13
2019-03-10T08:35:31.848Z,585.00
2019-03-10T08:36:31.839Z,585.00
2019-03-10T08:37:31.780Z,590.63
2019-03-10T08:38:31.773Z,585.00
2019-03-10T08:39:31.726Z,568.13
2019-03-10T08:40:31.752Z,551.25
2019-03-10T08:41:32.126Z,534.38
2019-03-10T08:42:31.651Z,517.50
2019-03-10T08:43:31.608Z,506.25
2019-03-10T08:44:31.573Z,483.75
2019-03-10T08:45:31.548Z,472.50
2019-03-10T08:46:31.538Z,461.25
2019-03-10T08:47:31.491Z,466.88
2019-03-10T08:48:31.457Z,478.13
2019-03-10T08:49:31.443Z,495.00
2019-03-10T08:50:31.400Z,506.25
2019-03-10T08:51:31.393Z,523.13
2019-03-10T08:52:31.341Z,534.38
2019-03-10T08:53:31.309Z,540.00
2019-03-10T08:54:32.054Z,534.38
2019-03-10T08:55:31.246Z,534.38
2019-03-10T08:56:31.251Z,517.50
2019-03-10T08:57:31.214Z,506.25
2019-03-10T08:58:31.158Z,500.63
2019-03-10T08:59:31.135Z,500.63
2019-03-10T09:00:31.105Z,500.63
2019-03-10T09:01:31.097Z,483.75
2019-03-10T09:02:31.097Z,483.75
2019-03-10T09:03:31.078Z,495.00
2019-03-10T09:04:30.988Z,534.38
2019-03-10T09:05:30.952Z,579.38
2019-03-10T09:06:30.925Z,607.50
2019-03-10T09:07:30.918Z,618.75
2019-03-10T09:08:30.876Z,624.38
2019-03-10T09:09:30.845Z,630.00
2019-03-10T09:10:30.820Z,641.25
2019-03-10T09:11:30.789Z,646.88
2019-03-10T09:12:30.776Z,646.88
2019-03-10T09:13:30.725Z,663.75
2019-03-10T09:14:30.691Z,686.25
2019-03-10T09:15:30.659Z,697.50
2019-03-10T09:16:30.636Z,686.25
2019-03-10T09:17:30.612Z,669.38
2019-03-10T09:18:30.608Z,658.13
2019-03-10T09:19:30.542Z,652.50
2019-03-10T09:20:30.521Z,641.25
2019-03-10T09:21:30.489Z,635.63
2019-03-10T09:22:30.454Z,646.88
2019-03-10T09:23:30.454Z,646.88
2019-03-10T09:24:30.396Z,641.25
2019-03-10T09:25:30.368Z,630.00
2019-03-10T09:26:30.341Z,618.75
2019-03-10T09:27:30.387Z,613.13
2019-03-10T09:28:30.306Z,624.38
2019-03-10T09:29:30.254Z,607.50
2019-03-10T09:30:30.231Z,585.00
2019-03-10T09:31:30.199Z,573.75
2019-03-10T09:32:30.165Z,579.38
2019-03-10T09:33:30.593Z,601.88
2019-03-10T09:34:30.124Z,618.75
2019-03-10T09:35:30.096Z,635.63
2019-03-10T09:36:30.064Z,652.50
2019-03-10T09:37:30.029Z,669.38
2019-03-10T09:38:30.020Z,669.38
2019-03-10T09:39:29.969Z,669.38
2019-03-10T09:40:29.937Z,663.75
2019-03-10T09:41:29.911Z,658.13
2019-03-10T09:42:29.895Z,663.75
2019-03-10T09:43:29.876Z,663.75
2019-03-10T09:44:29.829Z,652.50
2019-03-10T09:45:30.573Z,613.13
2019-03-10T09:46:30.561Z,596.25
2019-03-10T09:47:30.574Z,562.50
2019-03-10T09:48:29.741Z,523.13
2019-03-10T09:49:30.569Z,483.75
2019-03-10T09:50:29.661Z,466.88
2019-03-10T09:51:29.624Z,455.63
2019-03-10T09:52:33.463Z,427.50
2019-03-10T09:53:29.571Z,388.13
2019-03-10T09:54:29.572Z,376.88
2019-03-10T09:55:29.519Z,388.13
2019-03-10T09:56:29.489Z,388.13
2019-03-10T09:57:30.061Z,382.50
2019-03-10T09:58:30.077Z,382.50
2019-03-10T09:59:29.455Z,405.00
2019-03-10T10:00:30.064Z,410.63
2019-03-10T10:01:29.349Z,405.00
2019-03-10T10:02:29.319Z,371.25
2019-03-10T10:03:32.466Z,343.13
2019-03-10T10:04:29.292Z,348.75
2019-03-10T10:05:29.228Z,382.50
2019-03-10T10:06:29.209Z,416.25
2019-03-10T10:07:29.180Z,421.88
2019-03-10T10:08:29.151Z,444.38
2019-03-10T10:09:30.468Z,455.63
2019-03-10T10:10:29.105Z,461.25
2019-03-10T10:11:29.060Z,455.63
2019-03-10T10:12:29.032Z,450.00
2019-03-10T10:13:31.969Z,450.00
2019-03-10T10:14:28.992Z,444.38
2019-03-10T10:15:29.007Z,433.13
2019-03-10T10:16:28.923Z,405.00
2019-03-10T10:17:29.060Z,382.50
2019-03-10T10:18:28.857Z,354.38
2019-03-10T10:19:28.851Z,343.13
2019-03-10T10:20:28.851Z,348.75
2019-03-10T10:21:28.773Z,376.88
2019-03-10T10:22:28.746Z,405.00
2019-03-10T10:23:28.726Z,421.88
2019-03-10T10:24:28.745Z,433.13
2019-03-10T10:25:28.660Z,444.38
2019-03-10T10:26:28.634Z,438.75
2019-03-10T10:27:28.596Z,421.88
2019-03-10T10:28:28.576Z,427.50
2019-03-10T10:29:28.567Z,427.50
2019-03-10T10:30:28.544Z,427.50
2019-03-10T10:31:28.982Z,416.25
2019-03-10T10:32:29.137Z,405.00
2019-03-10T10:33:28.427Z,393.75
2019-03-10T10:34:28.394Z,393.75
2019-03-10T10:35:28.387Z,410.63
2019-03-10T10:36:28.331Z,433.13
2019-03-10T10:37:28.321Z,455.63
2019-03-10T10:38:28.292Z,461.25
2019-03-10T10:39:28.382Z,455.63
2019-03-10T10:40:28.243Z,450.00
2019-03-10T10:41:29.075Z,444.38
2019-03-10T10:42:28.163Z,421.88
2019-03-10T10:43:28.133Z,399.38
2019-03-10T10:44:28.105Z,388.13
2019-03-10T10:45:28.162Z,382.50
2019-03-10T10:46:28.048Z,382.50
2019-03-10T10:47:28.017Z,399.38
2019-03-10T10:48:28.005Z,410.63
2019-03-10T10:49:27.963Z,410.63
2019-03-10T10:50:27.994Z,393.75
2019-03-10T10:51:29.711Z,376.88
2019-03-10T10:52:27.884Z,348.75
2019-03-10T10:53:27.863Z,331.88
2019-03-10T10:54:27.825Z,315.00
2019-03-10T10:55:30.354Z,315.00
2019-03-10T10:56:27.756Z,315.00
2019-03-10T10:57:27.740Z,320.63
2019-03-10T10:58:27.697Z,331.88
2019-03-10T10:59:27.673Z,348.75
2019-03-10T11:00:27.662Z,376.88
2019-03-10T11:01:27.608Z,405.00
2019-03-10T11:02:27.583Z,427.50
2019-03-10T11:03:27.545Z,483.75
2019-03-10T11:04:27.519Z,585.00
2019-03-10T11:05:27.518Z,680.63
2019-03-10T11:06:27.463Z,736.88
2019-03-10T11:07:27.449Z,759.38
2019-03-10T11:08:27.406Z,736.88
2019-03-10T11:09:27.377Z,714.38
2019-03-10T11:10:27.422Z,686.25
2019-03-10T11:11:27.313Z,646.88
2019-03-10T11:12:27.284Z,630.00
2019-03-10T11:13:27.261Z,635.63
2019-03-10T11:14:27.282Z,635.63
2019-03-10T11:15:27.206Z,573.75
2019-03-10T11:16:27.606Z,478.13
2019-03-10T11:17:27.248Z,405.00
2019-03-10T11:18:27.121Z,365.63
2019-03-10T11:19:27.090Z,354.38
2019-03-10T11:20:27.061Z,348.75
2019-03-10T11:21:27.981Z,326.25
2019-03-10T11:22:27.062Z,320.63
2019-03-10T11:23:26.978Z,343.13
2019-03-10T11:24:26.943Z,365.63
2019-03-10T11:25:26.920Z,365.63
2019-03-10T11:26:26.917Z,337.50
2019-03-10T11:27:27.482Z,315.00
2019-03-10T11:28:26.834Z,286.88
2019-03-10T11:29:26.910Z,264.38
2019-03-10T11:30:27.580Z,264.38
2019-03-10T11:31:26.783Z,270.00
2019-03-10T11:32:26.750Z,258.75
2019-03-10T11:33:27.621Z,247.50
2019-03-10T11:34:26.653Z,241.88
2019-03-10T11:35:26.638Z,236.25
2019-03-10T11:36:26.616Z,236.25
2019-03-10T11:37:26.587Z,241.88
2019-03-10T11:38:26.539Z,258.75
2019-03-10T11:39:28.537Z,275.63
2019-03-10T11:40:26.511Z,298.13
2019-03-10T11:41:33.696Z,315.00
2019-03-10T11:42:26.442Z,326.25
2019-03-10T11:43:26.392Z,331.88
2019-03-10T11:44:26.424Z,343.13
2019-03-10T11:45:26.335Z,354.38
2019-03-10T11:46:26.334Z,360.00
2019-03-10T11:47:27.226Z,354.38
2019-03-10T11:48:26.248Z,360.00
2019-03-10T11:49:26.218Z,365.63
2019-03-10T11:50:26.204Z,382.50
2019-03-10T11:51:27.212Z,399.38
2019-03-10T11:52:32.992Z,405.00
2019-03-10T11:53:26.099Z,410.63
2019-03-10T11:54:26.592Z,438.75
2019-03-10T11:55:26.122Z,466.88
2019-03-10T11:56:26.548Z,489.38
2019-03-10T11:57:26.004Z,478.13
2019-03-10T11:58:26.031Z,461.25
2019-03-10T11:59:34.600Z,483.75
2019-03-10T12:00:25.887Z,528.75
2019-03-10T12:01:25.866Z,579.38
2019-03-10T12:02:25.861Z,590.63
2019-03-10T12:03:25.802Z,590.63
2019-03-10T12:04:25.770Z,585.00
2019-03-10T12:05:25.747Z,568.13
2019-03-10T12:06:25.713Z,556.88
2019-03-10T12:07:25.706Z,540.00
2019-03-10T12:08:25.659Z,500.63
2019-03-10T12:09:25.641Z,455.63
2019-03-10T12:10:26.160Z,444.38
2019-03-10T12:11:25.579Z,455.63
2019-03-10T12:12:25.571Z,483.75
2019-03-10T12:13:25.510Z,500.63
2019-03-10T12:14:25.527Z,517.50
2019-03-10T12:15:25.454Z,528.75
2019-03-10T12:16:25.424Z,528.75
2019-03-10T12:17:25.403Z,495.00
2019-03-10T12:18:25.419Z,444.38
2019-03-10T12:19:25.350Z,388.13
2019-03-10T12:20:25.308Z,331.88
2019-03-10T12:21:25.278Z,298.13
2019-03-10T12:22:25.256Z,286.88
2019-03-10T12:23:25.245Z,281.25
2019-03-10T12:24:25.198Z,281.25
2019-03-10T12:25:26.120Z,298.13
2019-03-10T12:26:25.133Z,320.63
2019-03-10T12:27:27.022Z,348.75
2019-03-10T12:28:25.188Z,371.25
2019-03-10T12:29:25.045Z,393.75
2019-03-10T12:30:25.020Z,416.25
2019-03-10T12:31:24.982Z,438.75
2019-03-10T12:32:24.953Z,455.63
2019-03-10T12:33:24.958Z,455.63
2019-03-10T12:34:24.895Z,444.38
2019-03-10T12:35:33.888Z,444.38
2019-03-10T12:36:24.839Z,450.00
2019-03-10T12:37:24.845Z,472.50
2019-03-10T12:38:24.813Z,489.38
2019-03-10T12:39:24.750Z,495.00
2019-03-10T12:40:24.721Z,489.38
2019-03-10T12:41:25.623Z,472.50
2019-03-10T12:42:24.662Z,461.25
2019-03-10T12:43:24.656Z,450.00
2019-03-10T12:44:24.600Z,450.00
2019-03-10T12:45:24.574Z,450.00
2019-03-10T12:46:24.540Z,438.75
2019-03-10T12:47:24.516Z,421.88
2019-03-10T12:48:24.512Z,405.00
2019-03-10T12:49:24.462Z,393.75
2019-03-10T12:50:24.427Z,360.00
2019-03-10T12:51:24.394Z,315.00
2019-03-10T12:52:24.369Z,292.50